createdAt,value
2023-05-20T00:05:12.885Z,0
2023-05-20T00:11:32.764Z,0
2023-05-20T00:17:55.906Z,0
2023-05-20T00:24:15.748Z,0
2023-05-20T00:30:38.775Z,0
2023-05-20T00:36:58.759Z,0
2023-05-20T00:43:21.761Z,0
2023-05-20T00:49:41.770Z,0
2023-05-20T00:56:04.840Z,0
2023-05-20T01:02:24.777Z,0
2023-05-20T01:08:47.734Z,0
2023-05-20T01:15:07.858Z,0
2023-05-20T01:21:30.744Z,0
2023-05-20T01:27:50.826Z,0
2023-05-20T01:34:13.809Z,0
2023-05-20T01:40:33.852Z,0
2023-05-20T01:46:56.795Z,0
2023-05-20T01:53:16.853Z,0
2023-05-20T01:59:39.758Z,0
2023-05-20T02:05:59.807Z,0
2023-05-20T02:12:22.803Z,0
2023-05-20T02:18:42.919Z,0
2023-05-20T02:25:05.837Z,0
2023-05-20T02:31:25.864Z,0
2023-05-20T02:37:48.765Z,0
2023-05-20T02:44:08.836Z,0
2023-05-20T02:50:31.778Z,0
2023-05-20T02:56:51.820Z,0
2023-05-20T03:03:14.864Z,0
2023-05-20T03:09:35.025Z,0
2023-05-20T03:15:57.819Z,0
2023-05-20T03:38:28.293Z,0
2023-05-20T03:44:47.783Z,0
2023-05-20T03:51:10.834Z,0
2023-05-20T03:57:30.776Z,0
2023-05-20T04:03:53.818Z,5.62
2023-05-20T04:10:13.761Z,5.62
2023-05-20T04:16:36.935Z,5.62
2023-05-20T04:22:56.736Z,5.62
2023-05-20T04:29:19.733Z,5.62
2023-05-20T04:35:39.935Z,11.25
2023-05-20T04:42:02.943Z,11.25
2023-05-20T04:48:22.804Z,16.88
2023-05-20T04:54:45.854Z,16.88
2023-05-20T05:01:05.861Z,16.88
2023-05-20T05:07:28.879Z,22.5
2023-05-20T05:13:48.794Z,22.5
2023-05-20T05:20:11.916Z,22.5
2023-05-20T05:26:31.806Z,28.12
2023-05-20T05:32:54.857Z,28.12
2023-05-20T05:39:14.911Z,28.12
2023-05-20T05:45:37.810Z,33.75
2023-05-20T05:51:57.837Z,39.38
2023-05-20T05:58:20.787Z,39.38
2023-05-20T06:04:40.964Z,45
2023-05-20T06:11:03.860Z,45
2023-05-20T06:17:23.793Z,45
2023-05-20T06:23:46.786Z,45
2023-05-20T06:30:06.858Z,45
2023-05-20T06:36:31.243Z,45
2023-05-20T06:42:49.753Z,56.25
2023-05-20T06:49:12.824Z,56.25
2023-05-20T06:55:32.956Z,61.88
2023-05-20T07:01:55.923Z,61.88
2023-05-20T07:08:15.829Z,67.5
2023-05-20T07:14:38.741Z,67.5
2023-05-20T07:20:58.751Z,73.12
2023-05-20T07:27:21.774Z,67.5
2023-05-20T07:33:41.821Z,67.5
2023-05-20T07:40:04.736Z,67.5
2023-05-20T07:46:24.851Z,73.12
2023-05-20T07:52:55.754Z,78.75
2023-05-20T07:59:07.739Z,78.75
2023-05-20T08:05:30.819Z,78.75
2023-05-20T08:11:50.728Z,90
2023-05-20T08:18:13.736Z,78.75
2023-05-20T08:24:33.790Z,95.62
2023-05-20T08:30:56.787Z,95.62
2023-05-20T08:37:16.776Z,95.62
2023-05-20T08:43:39.750Z,95.62
2023-05-20T08:59:28.628Z,84.38
2023-05-20T09:05:48.740Z,106.88
2023-05-20T09:12:11.732Z,118.12
2023-05-20T09:18:31.814Z,112.5
2023-05-20T09:24:54.760Z,101.25
2023-05-20T09:31:14.762Z,112.5
2023-05-20T09:37:37.787Z,123.75
2023-05-20T09:43:57.727Z,123.75
2023-05-20T09:50:20.770Z,123.75
2023-05-20T09:56:40.767Z,123.75
2023-05-20T10:03:03.810Z,129.38
2023-05-20T10:09:23.779Z,123.75
2023-05-20T10:15:46.761Z,112.5
2023-05-20T10:22:06.779Z,118.12
2023-05-20T10:28:29.735Z,129.38
2023-05-20T10:34:49.759Z,135
2023-05-20T10:41:12.746Z,118.12
2023-05-20T10:47:32.768Z,118.12
2023-05-20T10:53:55.794Z,129.38
2023-05-20T11:00:15.780Z,123.75
2023-05-20T11:06:38.749Z,123.75
2023-05-20T11:12:58.831Z,118.12
2023-05-20T11:19:21.817Z,95.62
2023-05-20T11:25:41.772Z,123.75
2023-05-20T11:32:04.931Z,106.88
2023-05-20T11:38:24.745Z,101.25
2023-05-20T11:44:47.778Z,151.88
2023-05-20T11:51:07.752Z,146.25
2023-05-20T11:57:30.767Z,129.38
2023-05-20T12:03:50.934Z,157.5
2023-05-20T12:10:13.780Z,151.88
2023-05-20T12:16:33.783Z,135
2023-05-20T12:22:56.731Z,140.62
2023-05-20T12:29:16.788Z,146.25
2023-05-20T12:35:39.764Z,151.88
2023-05-20T12:41:59.732Z,140.62
2023-05-20T12:48:22.803Z,140.62
2023-05-20T12:54:42.765Z,118.12
2023-05-20T13:01:05.753Z,140.62
2023-05-20T13:07:25.778Z,219.38
2023-05-20T13:13:48.730Z,140.62
2023-05-20T13:20:08.869Z,174.38
2023-05-20T13:26:31.765Z,129.38
2023-05-20T13:32:51.774Z,95.62
2023-05-20T13:39:14.755Z,129.38
2023-05-20T13:45:34.805Z,106.88
2023-05-20T13:51:57.766Z,225
2023-05-20T13:58:17.736Z,129.38
2023-05-20T14:04:40.752Z,106.88
2023-05-20T14:11:00.756Z,140.62
2023-05-20T14:17:24.027Z,112.5
2023-05-20T14:23:44.077Z,84.38
2023-05-20T14:30:06.719Z,84.38
2023-05-20T14:36:26.719Z,78.75
2023-05-20T14:59:50.770Z,45
2023-05-20T15:06:13.760Z,50.62
2023-05-20T15:12:33.806Z,84.38
2023-05-20T15:18:56.791Z,39.38
2023-05-20T15:25:16.755Z,50.62
2023-05-20T15:31:39.771Z,78.75
2023-05-20T15:37:59.765Z,101.25
2023-05-20T15:44:22.772Z,112.5
2023-05-20T15:50:42.733Z,90
2023-05-20T15:57:05.911Z,78.75
2023-05-20T16:03:25.805Z,61.88
2023-05-20T16:09:48.749Z,56.25
2023-05-20T16:16:08.821Z,39.38
2023-05-20T16:22:32.812Z,39.38
2023-05-20T16:28:51.763Z,45
2023-05-20T16:35:16.074Z,78.75
2023-05-20T16:41:34.742Z,50.62
2023-05-20T16:47:57.738Z,33.75
2023-05-20T16:54:17.754Z,45
2023-05-20T17:00:40.747Z,56.25
2023-05-20T17:07:00.757Z,84.38
2023-05-20T17:13:23.956Z,56.25
2023-05-20T17:19:43.741Z,50.62
2023-05-20T17:26:06.779Z,56.25
2023-05-20T17:32:26.776Z,73.12
2023-05-20T17:38:49.797Z,78.75
2023-05-20T17:45:09.762Z,73.12
2023-05-20T17:51:32.763Z,39.38
2023-05-20T17:57:52.757Z,39.38
2023-05-20T18:04:15.759Z,33.75
2023-05-20T18:10:35.919Z,28.12
2023-05-20T18:16:58.754Z,28.12
2023-05-20T18:23:18.847Z,22.5
2023-05-20T18:29:41.782Z,22.5
2023-05-20T18:36:01.756Z,22.5
2023-05-20T18:42:24.771Z,16.88
2023-05-20T18:48:44.779Z,16.88
2023-05-20T18:55:07.780Z,11.25
2023-05-20T19:01:27.917Z,5.62
2023-05-20T19:07:50.860Z,5.62
2023-05-20T19:14:10.847Z,5.62
2023-05-20T19:20:33.841Z,0
2023-05-20T19:26:53.748Z,0
2023-05-20T19:33:16.786Z,0
2023-05-20T19:39:36.762Z,0
2023-05-20T19:45:59.824Z,0
2023-05-20T19:52:19.766Z,0
2023-05-20T19:58:42.747Z,0
2023-05-20T20:05:02.897Z,0
2023-05-20T20:11:25.742Z,0
2023-05-20T20:17:46.138Z,0
2023-05-20T20:41:17.777Z,0
2023-05-20T20:47:40.876Z,0
2023-05-20T20:54:00.810Z,0
2023-05-20T21:00:23.785Z,0
2023-05-20T21:06:43.756Z,0
2023-05-20T21:13:06.752Z,0
2023-05-20T21:19:26.871Z,0
2023-05-20T21:25:49.795Z,0
2023-05-20T21:32:09.741Z,0
2023-05-20T21:38:32.770Z,0
2023-05-20T21:44:52.835Z,0
2023-05-20T21:51:15.776Z,0
2023-05-20T21:57:35.831Z,0
2023-05-20T22:20:32.760Z,0
2023-05-20T22:26:52.792Z,0
2023-05-20T22:33:15.744Z,0
2023-05-20T22:39:35.826Z,0
2023-05-20T22:45:58.776Z,0
2023-05-20T22:52:18.829Z,0
2023-05-20T22:58:41.814Z,0
2023-05-20T23:05:01.759Z,0
2023-05-20T23:11:24.782Z,0
2023-05-20T23:17:44.926Z,0
2023-05-20T23:24:07.828Z,0
2023-05-20T23:30:27.836Z,0
2023-05-20T23:36:50.784Z,0
2023-05-20T23:43:10.831Z,0
2023-05-20T23:49:33.782Z,0
2023-05-20T23:55:53.858Z,0
